createdAt,value
2022-11-12T00:03:38.698Z,12.98
2022-11-12T00:08:40.466Z,15.52
2022-11-12T00:13:42.376Z,9.45
2022-11-12T00:18:44.148Z,11.10
2022-11-12T00:23:45.932Z,13.10
2022-11-12T00:28:47.777Z,12.18
2022-11-12T00:33:49.626Z,10.48
2022-11-12T00:38:51.358Z,14.60
2022-11-12T00:43:53.122Z,14.55
2022-11-12T00:48:55.015Z,15.00
2022-11-12T00:53:56.754Z,15.27
2022-11-12T00:59:00.118Z,22.08
2022-11-12T01:04:02.203Z,20.08
2022-11-12T01:09:04.146Z,28.98
2022-11-12T01:14:08.014Z,13.75
2022-11-12T01:19:12.109Z,21.30
2022-11-12T01:24:14.031Z,17.77
2022-11-12T01:29:15.915Z,19.30
2022-11-12T01:34:17.830Z,16.88
2022-11-12T01:39:19.648Z,21.13
2022-11-12T01:44:27.081Z,24.55
2022-11-12T01:49:39.573Z,17.33
2022-11-12T01:54:42.228Z,22.95
2022-11-12T01:59:48.626Z,21.20
2022-11-12T02:04:51.304Z,23.15
2022-11-12T02:09:53.720Z,23.55
2022-11-12T02:14:55.613Z,23.95
2022-11-12T02:20:01.387Z,23.63
2022-11-12T02:25:03.334Z,26.40
2022-11-12T02:30:05.661Z,26.90
2022-11-12T02:35:08.036Z,23.98
2022-11-12T02:40:10.369Z,24.48
2022-11-12T02:45:12.312Z,24.20
2022-11-12T02:50:14.259Z,25.42
2022-11-12T02:55:16.068Z,20.92
2022-11-12T03:00:18.716Z,18.25
2022-11-12T03:05:20.531Z,23.52
2022-11-12T03:10:22.599Z,30.38
2022-11-12T03:15:24.583Z,21.17
2022-11-12T03:20:27.501Z,18.23
2022-11-12T03:25:29.598Z,17.23
2022-11-12T03:30:33.739Z,24.50
2022-11-12T03:35:36.006Z,23.02
2022-11-12T03:40:38.083Z,21.40
2022-11-12T03:45:40.037Z,19.60
2022-11-12T03:50:42.045Z,20.52
2022-11-12T03:55:43.934Z,19.75
2022-11-12T04:00:45.748Z,23.08
2022-11-12T04:06:19.780Z,21.58
2022-11-12T04:11:21.843Z,18.30
2022-11-12T04:16:42.461Z,25.23
2022-11-12T04:22:00.834Z,28.40
2022-11-12T04:27:02.784Z,18.45
2022-11-12T04:32:04.821Z,28.83
2022-11-12T04:37:07.067Z,28.80
2022-11-12T04:42:28.940Z,21.73
2022-11-12T04:47:36.727Z,24.15
2022-11-12T04:52:38.525Z,28.03
2022-11-12T04:57:40.329Z,24.33
2022-11-12T05:02:42.368Z,20.98
2022-11-12T05:07:44.272Z,23.30
2022-11-12T05:12:46.357Z,23.50
2022-11-12T05:17:48.168Z,21.48
2022-11-12T05:23:04.818Z,20.70
2022-11-12T05:28:08.075Z,22.23
2022-11-12T05:33:09.798Z,18.30
2022-11-12T05:38:11.642Z,24.70
2022-11-12T05:43:13.386Z,27.25
2022-11-12T05:48:17.787Z,16.13
2022-11-12T05:53:21.971Z,23.92
2022-11-12T05:58:24.065Z,24.63
2022-11-12T06:03:26.542Z,24.67
2022-11-12T06:08:28.933Z,18.48
2022-11-12T06:13:31.103Z,16.98
2022-11-12T06:18:32.913Z,17.80
2022-11-12T06:23:34.665Z,29.95
2022-11-12T06:28:36.518Z,22.13
2022-11-12T06:33:38.461Z,19.80
2022-11-12T06:38:41.171Z,18.73
2022-11-12T06:43:43.322Z,17.55
2022-11-12T06:48:45.105Z,22.00
2022-11-12T06:53:47.391Z,16.58
2022-11-12T06:58:49.114Z,15.65
2022-11-12T07:03:54.273Z,19.50
2022-11-12T07:08:56.425Z,15.93
2022-11-12T07:13:58.303Z,18.30
2022-11-12T07:19:00.211Z,13.50
2022-11-12T07:24:01.995Z,14.68
2022-11-12T07:29:03.858Z,20.88
2022-11-12T07:34:05.838Z,17.73
2022-11-12T07:39:07.963Z,18.17
2022-11-12T07:44:10.129Z,15.52
2022-11-12T07:49:12.111Z,17.17
2022-11-12T07:54:14.165Z,13.15
2022-11-12T07:59:16.133Z,17.50
2022-11-12T08:04:18.127Z,12.68
2022-11-12T08:09:19.939Z,16.55
2022-11-12T08:14:21.706Z,19.13
2022-11-12T08:19:23.475Z,19.45
2022-11-12T08:24:25.322Z,14.82
2022-11-12T08:29:27.322Z,14.13
2022-11-12T08:34:29.062Z,21.73
2022-11-12T08:39:30.846Z,17.42
2022-11-12T08:44:32.678Z,13.27
2022-11-12T08:49:34.535Z,23.05
2022-11-12T08:54:36.510Z,19.40
2022-11-12T08:59:38.289Z,16.70
2022-11-12T09:04:40.229Z,15.55
2022-11-12T09:09:42.208Z,21.75
2022-11-12T09:14:44.079Z,17.58
2022-11-12T09:19:45.826Z,16.73
2022-11-12T09:24:47.615Z,20.88
2022-11-12T09:29:49.378Z,16.50
2022-11-12T09:34:51.104Z,16.92
2022-11-12T09:39:52.855Z,15.85
2022-11-12T09:45:00.684Z,14.38
2022-11-12T09:50:27.090Z,24.00
2022-11-12T09:55:37.849Z,11.68
2022-11-12T10:00:45.142Z,17.45
2022-11-12T10:06:01.153Z,14.98
2022-11-12T10:11:16.994Z,15.20
2022-11-12T10:17:01.268Z,10.55
2022-11-12T10:22:14.977Z,16.42
2022-11-12T10:27:21.075Z,18.08
2022-11-12T10:32:23.158Z,16.55
2022-11-12T10:37:28.190Z,15.55
2022-11-12T10:42:30.124Z,14.20
2022-11-12T10:47:42.860Z,16.17
2022-11-12T10:52:56.888Z,14.85
2022-11-12T10:58:21.503Z,17.20
2022-11-12T11:03:36.704Z,20.17
2022-11-12T11:08:47.386Z,16.10
2022-11-12T11:13:55.591Z,16.58
2022-11-12T11:19:05.981Z,12.57
2022-11-12T11:24:36.692Z,19.80
2022-11-12T11:29:47.896Z,17.38
2022-11-12T11:35:15.937Z,16.05
2022-11-12T11:40:41.460Z,16.30
2022-11-12T11:46:06.031Z,19.55
2022-11-12T11:51:29.063Z,16.70
2022-11-12T11:56:40.453Z,17.42
2022-11-12T12:02:16.312Z,11.65
2022-11-12T12:07:42.177Z,10.57
2022-11-12T12:12:43.955Z,20.83
2022-11-12T12:18:06.978Z,19.25
2022-11-12T12:23:39.212Z,20.77
2022-11-12T12:28:56.590Z,14.88
2022-11-12T12:34:30.897Z,18.83
2022-11-12T12:39:47.764Z,21.83
2022-11-12T12:45:01.021Z,14.70
2022-11-12T12:50:07.625Z,17.10
2022-11-12T12:55:42.611Z,16.80
2022-11-12T13:00:53.311Z,22.55
2022-11-12T13:06:08.130Z,16.55
2022-11-12T13:11:10.280Z,21.10
2022-11-12T13:16:51.116Z,18.73
2022-11-12T13:22:18.821Z,18.25
2022-11-12T13:27:40.777Z,19.90
2022-11-12T13:32:48.383Z,17.45
2022-11-12T13:38:15.781Z,20.00
2022-11-12T13:43:27.785Z,18.35
2022-11-12T13:48:38.999Z,18.67
2022-11-12T13:53:40.807Z,21.25
2022-11-12T13:58:44.120Z,23.27
2022-11-12T14:03:49.176Z,23.67
2022-11-12T14:08:56.976Z,29.70
2022-11-12T14:14:22.661Z,27.70
2022-11-12T14:19:52.810Z,33.78
2022-11-12T14:25:00.435Z,32.33
2022-11-12T14:30:34.613Z,29.63
2022-11-12T14:35:40.403Z,25.58
2022-11-12T14:41:02.105Z,33.05
2022-11-12T14:46:07.005Z,43.33
2022-11-12T14:51:11.633Z,33.75
2022-11-12T14:56:34.164Z,27.90
2022-11-12T15:07:01.499Z,38.63
2022-11-12T15:12:11.291Z,39.75
2022-11-12T15:17:39.513Z,44.58
2022-11-12T15:22:41.428Z,41.15
2022-11-12T15:27:43.536Z,48.55
2022-11-12T15:32:46.369Z,39.60
2022-11-12T15:37:48.388Z,39.80
2022-11-12T15:42:50.363Z,44.28
2022-11-12T15:47:52.842Z,41.17
2022-11-12T15:52:54.610Z,38.28
2022-11-12T15:57:56.407Z,42.00
2022-11-12T16:03:06.255Z,42.25
2022-11-12T16:08:08.438Z,44.88
2022-11-12T16:13:30.188Z,40.70
2022-11-12T16:18:32.252Z,40.33
2022-11-12T16:23:34.048Z,45.55
2022-11-12T16:28:36.201Z,40.60
2022-11-12T16:33:38.018Z,41.78
2022-11-12T16:38:39.728Z,46.80
2022-11-12T16:43:41.778Z,42.80
2022-11-12T16:48:43.583Z,42.70
2022-11-12T16:53:46.215Z,44.53
2022-11-12T16:58:48.813Z,45.45
2022-11-12T17:03:52.557Z,33.40
2022-11-12T17:08:54.836Z,41.25
2022-11-12T17:13:56.817Z,36.13
2022-11-12T17:19:01.535Z,42.88
2022-11-12T17:24:03.778Z,43.13
2022-11-12T17:29:08.346Z,39.13
2022-11-12T17:34:10.419Z,40.40
2022-11-12T17:39:13.590Z,47.55
2022-11-12T17:44:17.729Z,34.35
2022-11-12T17:49:19.656Z,48.50
2022-11-12T17:54:21.751Z,41.00
2022-11-12T17:59:23.567Z,46.13
2022-11-12T18:04:29.851Z,51.28
2022-11-12T18:09:32.640Z,38.22
2022-11-12T18:14:34.519Z,44.78
2022-11-12T18:19:36.300Z,43.25
2022-11-12T18:24:38.249Z,42.78
2022-11-12T18:29:41.575Z,39.95
2022-11-12T18:34:45.294Z,47.85
2022-11-12T18:39:47.193Z,44.42
2022-11-12T18:44:48.969Z,45.72
2022-11-12T18:49:50.898Z,50.17
2022-11-12T18:54:52.723Z,52.70
2022-11-12T18:59:55.131Z,44.08
2022-11-12T19:04:56.870Z,44.15
2022-11-12T19:09:58.690Z,42.67
2022-11-12T19:15:00.679Z,54.30
2022-11-12T19:20:02.560Z,52.30
2022-11-12T19:25:04.601Z,48.88
2022-11-12T19:30:07.003Z,49.92
2022-11-12T19:35:09.245Z,39.55
2022-11-12T19:40:11.585Z,50.95
2022-11-12T19:45:13.748Z,45.00
2022-11-12T19:50:15.786Z,40.63
2022-11-12T19:55:17.671Z,47.22
2022-11-12T20:00:19.574Z,61.38
2022-11-12T20:05:21.282Z,33.75
2022-11-12T20:10:23.013Z,34.75
2022-11-12T20:15:25.802Z,36.17
2022-11-12T20:20:27.673Z,46.03
2022-11-12T20:25:29.769Z,36.03
2022-11-12T20:30:31.678Z,26.48
2022-11-12T20:35:36.896Z,36.40
2022-11-12T20:40:38.785Z,35.58
2022-11-12T20:45:40.667Z,41.35
2022-11-12T20:51:02.333Z,40.42
2022-11-12T20:56:12.589Z,31.90
2022-11-12T21:01:16.622Z,44.17
2022-11-12T21:06:23.894Z,44.20
2022-11-12T21:11:25.897Z,37.20
2022-11-12T21:16:27.857Z,31.67
2022-11-12T21:21:31.680Z,37.95
2022-11-12T21:26:34.327Z,41.78
2022-11-12T21:31:36.346Z,39.92
2022-11-12T21:36:38.081Z,48.85
2022-11-12T21:41:40.051Z,41.80
2022-11-12T21:46:41.862Z,44.95
2022-11-12T21:51:43.712Z,44.40
2022-11-12T21:56:45.562Z,43.45
2022-11-12T22:01:47.521Z,43.33
2022-11-12T22:06:49.544Z,47.40
2022-11-12T22:11:51.474Z,37.28
2022-11-12T22:16:53.375Z,40.72
2022-11-12T22:21:55.326Z,49.70
2022-11-12T22:27:01.219Z,42.47
2022-11-12T22:32:05.853Z,42.97
2022-11-12T22:37:08.157Z,44.10
2022-11-12T22:42:10.022Z,51.63
2022-11-12T22:47:11.860Z,42.75
2022-11-12T22:52:13.633Z,46.40
2022-11-12T22:57:15.495Z,63.97
2022-11-12T23:02:17.343Z,38.15
2022-11-12T23:07:19.299Z,65.15
2022-11-12T23:12:21.162Z,52.67
2022-11-12T23:17:23.124Z,52.17
2022-11-12T23:22:24.958Z,61.15
2022-11-12T23:27:26.906Z,52.22
2022-11-12T23:32:28.661Z,54.15
2022-11-12T23:37:30.491Z,41.92
2022-11-12T23:42:32.443Z,41.08
2022-11-12T23:47:34.258Z,55.80
2022-11-12T23:52:36.176Z,37.17
2022-11-12T23:57:37.903Z,37.90
